Time;durP1;ratioP1;P1;durP2;ratioP2;P2;SDS_P1;SDS_P2;PMS_P1;PMS_P2;Temp;Humidity;BMP_temperature;BMP_pressure;BME280_temperature;BME280_humidity;BME280_pressure;Samples;Min_cycle;Max_cycle;Signal;HPM_P1;HPM_P2
2021/12/10 00:00:37;;;;;;;12.43;9.40;;;20.20;44.50;;;;;;6245183;28;20017;-71
2021/12/10 00:03:42;;;;;;;11.65;8.38;;;20.20;44.50;;;;;;6240190;28;20399;-71
2021/12/10 00:06:51;;;;;;;13.95;9.55;;;20.20;44.50;;;;;;6243679;28;20475;-71
2021/12/10 00:09:59;;;;;;;12.02;8.70;;;20.20;44.50;;;;;;6244772;28;20120;-72
2021/12/10 00:13:00;;;;;;;12.18;8.40;;;20.20;44.60;;;;;;6251090;28;20036;-71
2021/12/10 00:16:02;;;;;;;13.90;8.68;;;20.20;44.60;;;;;;6269434;28;20109;-71
2021/12/10 00:22:39;;;;;;;13.00;8.90;;;20.20;44.60;;;;;;6236332;28;20057;-71
2021/12/10 00:25:47;;;;;;;12.55;8.65;;;20.20;44.60;;;;;;6244572;28;20115;-71
2021/12/10 00:28:48;;;;;;;13.10;8.73;;;20.20;44.60;;;;;;6243006;28;20021;-71
2021/12/10 00:31:54;;;;;;;12.82;9.40;;;20.20;44.60;;;;;;6235317;28;20584;-71
2021/12/10 00:34:57;;;;;;;12.20;8.50;;;20.20;44.70;;;;;;6244088;28;20025;-71
2021/12/10 00:37:59;;;;;;;13.85;9.02;;;20.20;44.70;;;;;;6259382;28;20044;-71
2021/12/10 00:41:00;;;;;;;12.90;8.80;;;20.20;44.70;;;;;;6268960;28;20067;-71
2021/12/10 00:44:01;;;;;;;12.88;9.00;;;20.20;44.70;;;;;;6246386;28;20108;-71
2021/12/10 00:47:03;;;;;;;12.75;8.77;;;20.20;44.70;;;;;;6242662;28;20029;-71
2021/12/10 00:50:06;;;;;;;12.65;8.45;;;20.20;44.80;;;;;;6243066;28;20029;-71
2021/12/10 00:53:07;;;;;;;13.13;9.05;;;20.20;44.70;;;;;;6254451;28;20025;-71
2021/12/10 00:56:09;;;;;;;13.20;8.88;;;20.20;44.60;;;;;;6244214;28;20678;-71
2021/12/10 00:59:11;;;;;;;12.40;8.40;;;20.20;44.70;;;;;;6243718;28;20013;-71
2021/12/10 01:02:15;;;;;;;11.63;8.73;;;20.20;44.60;;;;;;6243999;28;20052;-71
2021/12/10 01:05:17;;;;;;;13.13;8.90;;;20.20;44.80;;;;;;6242602;28;20080;-71
2021/12/10 01:08:19;;;;;;;11.35;8.00;;;20.20;44.70;;;;;;6256356;28;20063;-71
2021/12/10 01:11:26;;;;;;;12.07;8.18;;;20.20;44.70;;;;;;6267058;28;20029;-71
2021/12/10 01:14:41;;;;;;;11.30;8.13;;;20.20;44.70;;;;;;6246795;28;20038;-71
2021/12/10 01:24:35;;;;;;;11.75;8.10;;;20.20;44.70;;;;;;6243987;28;20032;-71
2021/12/10 01:27:38;;;;;;;;;;;20.20;44.70;;;;;;6243951;28;20032;-71
2021/12/10 01:30:40;;;;;;;11.45;8.05;;;20.20;44.80;;;;;;6240737;28;19905;-71
2021/12/10 01:33:43;;;;;;;11.27;8.02;;;20.20;44.80;;;;;;6246379;28;20025;-71
2021/12/10 01:36:44;;;;;;;11.55;8.40;;;20.20;44.80;;;;;;6252406;28;20028;-71
2021/12/10 01:39:46;;;;;;;11.52;8.15;;;20.20;44.70;;;;;;6273211;28;20028;-71
2021/12/10 01:42:51;;;;;;;11.73;7.70;;;20.20;44.70;;;;;;6260388;28;20086;-71
2021/12/10 01:46:06;;;;;;;10.70;7.78;;;20.20;44.80;;;;;;6247476;28;20029;-71
2021/12/10 01:49:09;;;;;;;9.65;6.82;;;20.20;44.70;;;;;;6248316;28;20025;-72
2021/12/10 01:52:14;;;;;;;11.48;8.07;;;20.20;44.70;;;;;;6247728;28;20057;-71
2021/12/10 01:55:19;;;;;;;12.98;8.50;;;20.20;44.80;;;;;;6247712;28;20029;-71
2021/12/10 01:58:21;;;;;;;;;;;20.20;44.80;;;;;;6248397;28;20056;-70
2021/12/10 02:01:31;;;;;;;12.07;7.70;;;20.20;44.80;;;;;;6248041;28;19912;-71
2021/12/10 02:04:34;;;;;;;11.38;7.82;;;20.20;44.80;;;;;;6271762;28;20074;-71
2021/12/10 02:07:35;;;;;;;11.55;7.97;;;20.20;44.80;;;;;;6270411;28;20394;-71
2021/12/10 02:10:36;;;;;;;10.27;7.55;;;20.20;44.90;;;;;;6247887;28;20030;-71
2021/12/10 02:13:38;;;;;;;12.25;8.00;;;20.20;44.90;;;;;;6247165;28;20049;-71
2021/12/10 02:16:39;;;;;;;10.85;7.45;;;20.20;44.90;;;;;;6247568;28;20624;-71
2021/12/10 02:19:40;;;;;;;9.48;7.07;;;20.20;44.90;;;;;;6247516;28;20017;-71
2021/12/10 02:22:43;;;;;;;10.68;7.82;;;20.20;44.90;;;;;;6248175;28;20017;-71
2021/12/10 02:25:46;;;;;;;10.77;7.65;;;20.20;44.90;;;;;;6256599;28;20112;-71
2021/12/10 02:28:46;;;;;;;11.55;8.02;;;20.20;45.00;;;;;;6248754;28;20018;-71
2021/12/10 02:31:48;;;;;;;11.88;7.93;;;20.20;44.90;;;;;;6238002;28;20048;-71
2021/12/10 02:34:50;;;;;;;11.25;8.00;;;20.20;44.90;;;;;;6247259;28;20037;-71
2021/12/10 02:37:50;;;;;;;10.32;7.28;;;20.20;44.90;;;;;;6259736;28;20032;-71
2021/12/10 02:40:54;;;;;;;9.73;7.25;;;20.20;44.90;;;;;;6271452;28;20066;-71
2021/12/10 02:43:58;;;;;;;10.98;7.65;;;20.20;44.90;;;;;;6254148;28;20111;-71
2021/12/10 02:47:00;;;;;;;10.93;6.88;;;20.20;45.00;;;;;;6266614;28;20030;-71
2021/12/10 02:50:01;;;;;;;10.60;7.10;;;20.20;45.00;;;;;;6247232;28;20109;-71
2021/12/10 02:53:03;;;;;;;11.15;7.72;;;20.20;45.00;;;;;;6259873;28;20437;-71
2021/12/10 02:56:04;;;;;;;10.60;7.70;;;20.20;45.00;;;;;;6270322;28;20036;-71
2021/12/10 02:59:05;;;;;;;12.05;8.05;;;20.20;45.00;;;;;;6250481;28;20018;-71
2021/12/10 03:02:12;;;;;;;11.20;7.88;;;20.20;45.00;;;;;;6246485;28;20394;-71
2021/12/10 03:05:13;;;;;;;11.10;7.60;;;20.20;45.00;;;;;;6246473;28;20025;-71
2021/12/10 03:08:14;;;;;;;9.85;7.50;;;20.10;45.00;;;;;;6246540;28;20021;-71
2021/12/10 03:11:19;;;;;;;11.57;7.75;;;20.20;45.10;;;;;;6246304;28;20112;-71
2021/12/10 03:14:23;;;;;;;10.93;7.43;;;20.20;45.00;;;;;;6265474;28;20045;-71
2021/12/10 03:17:30;;;;;;;11.23;7.82;;;20.10;45.10;;;;;;6267214;28;20031;-71
2021/12/10 03:20:32;;;;;;;11.35;7.63;;;20.10;45.70;;;;;;6246170;28;20033;-71
2021/12/10 03:23:32;;;;;;;11.48;8.05;;;20.10;45.00;;;;;;6245996;28;20098;-70
2021/12/10 03:26:34;;;;;;;9.60;7.20;;;20.10;45.70;;;;;;6244530;28;20029;-71
2021/12/10 03:29:36;;;;;;;11.18;7.80;;;20.10;45.00;;;;;;6245983;28;20025;-71
2021/12/10 03:32:39;;;;;;;10.85;7.57;;;20.20;45.10;;;;;;6235006;28;20037;-71
2021/12/10 03:35:47;;;;;;;11.07;7.53;;;20.10;45.10;;;;;;6245933;28;20218;-70
2021/12/10 03:38:49;;;;;;;11.80;7.93;;;20.10;45.00;;;;;;6244774;28;20037;-71
2021/12/10 03:41:50;;;;;;;9.40;6.88;;;20.10;45.00;;;;;;6245809;28;20036;-71
2021/12/10 03:44:51;;;;;;;11.52;7.82;;;20.10;45.00;;;;;;6244292;28;20491;-71
2021/12/10 03:47:52;;;;;;;11.10;7.65;;;20.10;45.00;;;;;;6256493;28;20078;-71
2021/12/10 03:50:56;;;;;;;10.10;7.28;;;20.10;45.10;;;;;;6270323;28;20033;-71
2021/12/10 03:53:57;;;;;;;10.93;7.63;;;20.10;45.00;;;;;;6248365;28;20042;-72
2021/12/10 03:56:58;;;;;;;10.85;7.10;;;20.20;45.10;;;;;;6248385;28;20029;-71
2021/12/10 04:00:38;;;;;;;10.10;7.40;;;20.10;45.00;;;;;;6269971;28;20025;-71
2021/12/10 04:03:41;;;;;;;9.80;7.00;;;20.10;45.10;;;;;;6251729;28;20026;-71
2021/12/10 04:06:42;;;;;;;10.55;7.35;;;20.10;45.00;;;;;;6243461;28;20629;-71
2021/12/10 04:09:43;;;;;;;10.07;7.10;;;20.10;45.00;;;;;;6244820;28;20033;-71
2021/12/10 04:12:44;;;;;;;9.40;7.05;;;20.10;45.10;;;;;;6244428;28;20054;-71
2021/12/10 04:15:45;;;;;;;8.95;6.68;;;20.10;45.00;;;;;;6244828;28;20025;-71
2021/12/10 04:18:47;;;;;;;8.82;6.40;;;20.10;45.00;;;;;;6244514;28;20036;-71
2021/12/10 04:21:48;;;;;;;11.50;7.22;;;20.10;45.10;;;;;;6244946;28;20132;-71
2021/12/10 04:24:49;;;;;;;9.32;6.72;;;20.10;45.10;;;;;;6243212;28;20507;-71
2021/12/10 04:27:54;;;;;;;9.93;7.10;;;20.10;45.10;;;;;;6244180;28;20087;-71
2021/12/10 04:30:55;;;;;;;10.40;7.25;;;20.10;45.00;;;;;;6244729;28;20064;-71
2021/12/10 04:33:55;;;;;;;9.90;7.07;;;20.10;45.10;;;;;;6242844;28;20407;-71
2021/12/10 04:36:59;;;;;;;12.18;8.32;;;20.10;45.10;;;;;;6244640;28;20148;-71
2021/12/10 04:40:03;;;;;;;10.82;6.93;;;20.10;45.10;;;;;;6244703;28;20022;-71
2021/12/10 04:43:03;;;;;;;8.95;6.80;;;20.10;45.10;;;;;;6244404;28;20053;-71
2021/12/10 04:46:05;;;;;;;11.38;7.05;;;20.10;45.10;;;;;;6242951;28;20471;-71
2021/12/10 04:49:10;;;;;;;11.60;7.63;;;20.10;45.10;;;;;;6242828;28;20025;-71
2021/12/10 04:52:11;;;;;;;9.98;7.43;;;20.10;45.10;;;;;;6244156;28;20026;-71
2021/12/10 04:55:14;;;;;;;10.63;7.53;;;20.10;45.20;;;;;;6243905;28;20822;-71
2021/12/10 04:58:15;;;;;;;11.27;7.30;;;20.10;45.10;;;;;;6243838;28;20026;-71
2021/12/10 05:01:16;;;;;;;11.02;7.28;;;20.10;45.10;;;;;;6244253;28;20083;-71
2021/12/10 05:04:17;;;;;;;10.95;7.43;;;20.10;45.10;;;;;;6250078;28;20513;-71
2021/12/10 05:07:18;;;;;;;11.02;7.65;;;20.10;45.10;;;;;;6263838;28;20591;-71
2021/12/10 05:10:19;;;;;;;9.90;7.50;;;20.10;45.20;;;;;;6243586;28;20055;-71
2021/12/10 05:13:20;;;;;;;9.43;6.97;;;20.10;45.10;;;;;;6242282;28;20049;-71
2021/12/10 05:16:25;;;;;;;10.57;7.43;;;20.10;45.10;;;;;;6243845;28;20195;-71
2021/12/10 05:19:28;;;;;;;9.67;6.87;;;20.10;45.10;;;;;;6263955;28;20017;-71
2021/12/10 05:22:28;;;;;;;9.30;6.70;;;20.10;45.10;;;;;;6268756;28;20259;-71
2021/12/10 05:25:29;;;;;;;9.13;6.65;;;20.10;45.10;;;;;;6259890;28;20052;-71
2021/12/10 05:28:30;;;;;;;9.75;6.55;;;20.10;45.10;;;;;;6265029;28;20029;-71
2021/12/10 05:31:31;;;;;;;10.18;6.95;;;20.10;45.00;;;;;;6254262;28;20032;-71
2021/12/10 05:34:32;;;;;;;10.45;6.95;;;20.10;45.00;;;;;;6243673;28;20494;-71
2021/12/10 05:37:33;;;;;;;9.85;6.47;;;20.10;45.00;;;;;;6243545;28;20036;-71
2021/12/10 05:40:34;;;;;;;9.95;7.00;;;20.10;45.00;;;;;;6242907;28;20021;-71
2021/12/10 05:43:36;;;;;;;9.20;6.63;;;20.20;44.90;;;;;;6262472;28;20036;-71
2021/12/10 05:46:38;;;;;;;8.52;6.35;;;20.20;45.00;;;;;;6266926;28;20071;-71
2021/12/10 05:49:39;;;;;;;9.50;6.80;;;20.10;44.90;;;;;;6268006;28;20029;-71
2021/12/10 05:52:40;;;;;;;8.65;6.57;;;20.20;44.90;;;;;;6258143;28;20049;-71
2021/12/10 05:55:41;;;;;;;11.52;7.07;;;20.20;44.80;;;;;;6243214;28;20074;-71
2021/12/10 05:58:42;;;;;;;9.35;6.70;;;20.20;44.90;;;;;;6243315;28;20037;-71
2021/12/10 06:01:44;;;;;;;11.05;7.32;;;20.20;44.90;;;;;;6239682;28;20099;-71
2021/12/10 06:04:45;;;;;;;29.25;7.38;;;20.20;44.80;;;;;;6251519;28;20541;-72
2021/12/10 06:07:46;;;;;;;15.45;7.18;;;20.20;44.80;;;;;;6251680;28;20021;-73
2021/12/10 06:10:48;;;;;;;13.18;7.00;;;20.20;44.90;;;;;;6241528;28;20576;-72
2021/12/10 06:13:50;;;;;;;23.30;7.32;;;20.30;44.90;;;;;;6242822;28;20045;-72
2021/12/10 06:16:54;;;;;;;21.27;8.07;;;20.20;44.90;;;;;;6244494;28;20026;-72
2021/12/10 06:19:55;;;;;;;19.52;10.38;;;20.20;45.00;;;;;;6246863;28;20067;-72
2021/12/10 06:22:57;;;;;;;16.17;10.57;;;20.20;44.40;;;;;;6246979;28;20112;-72
2021/12/10 06:25:57;;;;;;;16.95;9.23;;;20.20;44.40;;;;;;6247306;28;20060;-72
2021/12/10 06:28:59;;;;;;;16.73;9.38;;;20.20;44.60;;;;;;6269623;28;20400;-72
2021/12/10 06:31:59;;;;;;;17.27;9.13;;;20.20;44.70;;;;;;6259337;28;20060;-72
2021/12/10 06:35:00;;;;;;;16.75;9.80;;;20.20;44.80;;;;;;6258834;28;20031;-72
2021/12/10 06:38:01;;;;;;;17.75;8.98;;;20.30;45.00;;;;;;6258563;28;20021;-72
2021/12/10 06:41:03;;;;;;;13.73;9.23;;;20.20;45.00;;;;;;6246798;28;20021;-72
2021/12/10 06:44:06;;;;;;;11.02;8.05;;;20.30;45.10;;;;;;6244952;28;20025;-72
2021/12/10 06:47:08;;;;;;;12.82;8.45;;;20.30;45.20;;;;;;6246526;28;20026;-72
2021/12/10 06:50:09;;;;;;;13.38;8.90;;;20.30;45.20;;;;;;6246377;28;20022;-71
2021/12/10 06:53:10;;;;;;;11.88;7.93;;;20.30;45.20;;;;;;6248127;28;20505;-72
2021/12/10 06:56:13;;;;;;;13.48;8.60;;;20.30;45.30;;;;;;6245271;28;20035;-72
2021/12/10 06:59:14;;;;;;;18.17;8.65;;;20.30;45.20;;;;;;6242700;28;20538;-72
2021/12/10 07:02:15;;;;;;;12.35;8.35;;;20.30;45.30;;;;;;6231385;28;20049;-73
2021/12/10 07:05:16;;;;;;;15.23;8.68;;;20.40;45.20;;;;;;6272561;28;20460;-74
2021/12/10 07:08:19;;;;;;;16.48;9.18;;;20.40;45.10;;;;;;6262875;28;20094;-74
2021/12/10 07:11:21;;;;;;;13.00;8.85;;;20.40;45.00;;;;;;6270371;28;20508;-74
2021/12/10 07:14:21;;;;;;;13.70;8.35;;;20.40;45.00;;;;;;6248226;28;20045;-73
2021/12/10 07:17:22;;;;;;;12.68;8.38;;;20.50;45.10;;;;;;6248211;28;20029;-73
2021/12/10 07:20:24;;;;;;;16.92;8.63;;;20.50;45.00;;;;;;6248809;28;20128;-73
2021/12/10 07:23:25;;;;;;;11.13;8.20;;;20.50;45.00;;;;;;6247908;28;20029;-73
2021/12/10 07:26:27;;;;;;;12.88;8.38;;;20.50;45.00;;;;;;6246556;28;20032;-74
2021/12/10 07:29:27;;;;;;;12.10;7.78;;;20.50;45.10;;;;;;6246942;28;20029;-73
2021/12/10 07:32:28;;;;;;;12.65;8.65;;;20.50;45.30;;;;;;6259254;28;20027;-73
2021/12/10 07:35:29;;;;;;;13.23;8.23;;;20.50;45.30;;;;;;6272460;28;20469;-73
2021/12/10 07:38:30;;;;;;;14.13;8.27;;;20.50;45.40;;;;;;6252643;28;20029;-73
2021/12/10 07:41:31;;;;;;;12.13;8.35;;;20.50;45.40;;;;;;6246729;28;20025;-74
2021/12/10 07:44:31;;;;;;;12.57;7.93;;;20.50;46.20;;;;;;6247455;28;20029;-74
2021/12/10 07:47:36;;;;;;;11.98;7.85;;;20.40;45.50;;;;;;6247024;28;20032;-73
2021/12/10 07:50:42;;;;;;;13.25;8.75;;;20.40;45.50;;;;;;6247098;28;20593;-74
2021/12/10 07:53:44;;;;;;;12.57;8.13;;;20.40;45.60;;;;;;6244682;28;20033;-74
2021/12/10 07:56:45;;;;;;;12.20;8.15;;;20.40;45.70;;;;;;6246257;28;20025;-74
2021/12/10 07:59:48;;;;;;;11.10;7.95;;;20.40;45.70;;;;;;6246961;28;20483;-74
2021/12/10 08:02:49;;;;;;;15.75;7.80;;;20.40;45.70;;;;;;6247454;28;20025;-74
2021/12/10 08:05:51;;;;;;;11.68;7.68;;;20.40;45.80;;;;;;6247990;28;20036;-74
2021/12/10 08:08:52;;;;;;;11.45;7.93;;;20.40;45.80;;;;;;6244272;28;20113;-73
2021/12/10 08:11:53;;;;;;;11.20;7.55;;;20.40;45.80;;;;;;6244804;28;20481;-73
2021/12/10 08:14:55;;;;;;;12.63;7.72;;;20.40;45.90;;;;;;6244238;28;20029;-73
2021/12/10 08:17:56;;;;;;;11.05;7.25;;;20.40;45.90;;;;;;6246476;28;20109;-74
2021/12/10 08:20:57;;;;;;;12.10;8.25;;;20.40;46.00;;;;;;6246385;28;20632;-74
2021/12/10 08:23:59;;;;;;;12.18;8.20;;;20.40;46.00;;;;;;6246187;28;20025;-74
2021/12/10 08:26:59;;;;;;;10.32;7.88;;;20.40;46.00;;;;;;6256936;28;20025;-73
2021/12/10 08:30:03;;;;;;;12.68;8.35;;;20.50;46.10;;;;;;6244728;28;20029;-74
2021/12/10 08:33:10;;;;;;;11.85;7.85;;;20.40;46.00;;;;;;6243810;28;20021;-74
2021/12/10 08:36:11;;;;;;;13.30;8.60;;;20.40;46.00;;;;;;6245946;28;20126;-73
2021/12/10 08:39:13;;;;;;;14.25;8.63;;;20.40;46.00;;;;;;6243966;28;20043;-73
2021/12/10 08:42:15;;;;;;;12.23;7.93;;;20.40;46.00;;;;;;6244319;28;20116;-73
2021/12/10 08:45:16;;;;;;;12.30;7.72;;;20.40;46.00;;;;;;6245938;28;20134;-73
2021/12/10 08:48:16;;;;;;;11.40;7.70;;;20.40;46.00;;;;;;6256881;28;20108;-75
2021/12/10 08:51:25;;;;;;;12.25;8.45;;;20.40;46.00;;;;;;6245906;28;20031;-74
2021/12/10 08:54:30;;;;;;;11.48;8.07;;;20.40;46.00;;;;;;6245227;28;20028;-73
2021/12/10 08:57:32;;;;;;;11.50;8.15;;;20.40;46.00;;;;;;6244223;28;20029;-74
2021/12/10 09:00:33;;;;;;;11.68;7.72;;;20.40;46.00;;;;;;6268465;28;20557;-73
2021/12/10 09:03:34;;;;;;;10.95;7.90;;;20.40;46.00;;;;;;6250632;28;20087;-74
2021/12/10 09:06:38;;;;;;;11.70;8.10;;;20.40;46.00;;;;;;6243824;28;20436;-73
2021/12/10 09:09:42;;;;;;;11.43;7.83;;;20.40;46.00;;;;;;6243289;28;20029;-73
2021/12/10 09:12:44;;;;;;;12.82;8.27;;;20.40;46.00;;;;;;6244823;28;20049;-74
2021/12/10 09:15:50;;;;;;;13.55;8.18;;;20.40;46.00;;;;;;6245388;28;20477;-74
2021/12/10 09:18:54;;;;;;;12.10;7.90;;;20.40;46.00;;;;;;6245173;28;20025;-74
2021/12/10 09:21:56;;;;;;;12.30;8.52;;;20.40;46.00;;;;;;6245077;28;20018;-74
2021/12/10 09:24:57;;;;;;;11.88;7.68;;;20.40;46.00;;;;;;6245223;28;20034;-73
2021/12/10 09:27:58;;;;;;;11.52;8.15;;;20.40;46.00;;;;;;6245065;28;20033;-74
2021/12/10 09:31:00;;;;;;;11.75;7.97;;;20.40;45.90;;;;;;6243653;28;20025;-74
2021/12/10 09:34:02;;;;;;;10.98;7.57;;;20.40;45.90;;;;;;6251211;28;20747;-74
2021/12/10 09:37:04;;;;;;;13.68;9.20;;;20.40;45.90;;;;;;6247020;28;20042;-73
2021/12/10 09:40:10;;;;;;;11.77;8.07;;;20.40;46.60;;;;;;6243682;28;20501;-73
2021/12/10 09:43:12;;;;;;;11.80;8.07;;;20.40;46.00;;;;;;6230979;28;20029;-73
2021/12/10 09:46:13;;;;;;;12.75;8.43;;;20.40;45.90;;;;;;6219216;28;20030;-73
2021/12/10 09:49:14;;;;;;;10.30;7.70;;;20.40;45.90;;;;;;6265947;28;20036;-74
2021/12/10 09:52:16;;;;;;;11.90;7.70;;;20.40;45.90;;;;;;6261615;28;20022;-73
2021/12/10 09:55:18;;;;;;;11.10;7.75;;;20.40;45.90;;;;;;6249866;28;20507;-73
2021/12/10 09:58:20;;;;;;;11.20;7.35;;;20.40;45.90;;;;;;6250573;28;20021;-74
2021/12/10 10:01:26;;;;;;;10.82;7.63;;;20.40;46.00;;;;;;6248852;28;20026;-73
2021/12/10 10:04:31;;;;;;;11.13;7.70;;;20.40;45.90;;;;;;6248411;28;20382;-74
2021/12/10 10:07:33;;;;;;;12.65;8.00;;;20.40;45.90;;;;;;6248809;28;20018;-73
2021/12/10 10:10:35;;;;;;;10.82;7.95;;;20.40;45.90;;;;;;6248359;28;20556;-73
2021/12/10 10:13:39;;;;;;;11.82;7.45;;;20.40;45.90;;;;;;6247585;28;20045;-73
2021/12/10 10:16:44;;;;;;;11.23;7.75;;;20.40;45.90;;;;;;6248191;28;20163;-73
2021/12/10 10:19:44;;;;;;;11.73;8.13;;;20.40;46.00;;;;;;6247904;28;20029;-74
2021/12/10 10:22:45;;;;;;;11.18;7.85;;;20.40;46.00;;;;;;6249030;28;20264;-73
2021/12/10 10:25:48;;;;;;;11.43;7.85;;;20.40;46.00;;;;;;6247940;28;20029;-75
2021/12/10 10:28:49;;;;;;;12.23;7.93;;;20.40;46.00;;;;;;6250299;28;20030;-73
2021/12/10 10:31:55;;;;;;;13.48;8.32;;;20.40;46.00;;;;;;6250745;28;20117;-74
2021/12/10 10:35:01;;;;;;;11.80;7.63;;;20.40;46.00;;;;;;6249266;28;20076;-74
2021/12/10 10:38:03;;;;;;;9.88;7.40;;;20.40;46.00;;;;;;6247810;28;20025;-73
2021/12/10 10:41:10;;;;;;;12.23;7.80;;;20.40;46.00;;;;;;6248640;28;20510;-73
2021/12/10 10:44:11;;;;;;;10.80;7.72;;;20.40;46.00;;;;;;6251668;28;20068;-73
2021/12/10 10:47:12;;;;;;;10.32;7.50;;;20.40;46.00;;;;;;6246691;28;20072;-74
2021/12/10 10:50:15;;;;;;;10.98;7.95;;;20.40;46.00;;;;;;6229403;28;20029;-73
2021/12/10 10:53:18;;;;;;;10.90;7.70;;;20.40;46.10;;;;;;6228347;28;20029;-73
2021/12/10 10:56:28;;;;;;;11.05;7.80;;;20.40;46.10;;;;;;6245673;28;20032;-73
2021/12/10 10:59:28;;;;;;;11.10;7.93;;;20.40;46.10;;;;;;6244583;28;20022;-74
2021/12/10 11:02:40;;;;;;;10.70;7.68;;;20.40;46.10;;;;;;6227909;28;20026;-73
2021/12/10 11:05:58;;;;;;;11.68;7.95;;;20.40;46.00;;;;;;6242880;28;20072;-73
2021/12/10 11:09:28;;;;;;;12.18;8.25;;;20.40;46.00;;;;;;6219271;28;20033;-73
2021/12/10 11:12:35;;;;;;;15.00;7.57;;;20.40;46.00;;;;;;6227800;28;20039;-73
2021/12/10 11:15:37;;;;;;;11.07;7.95;;;20.40;46.10;;;;;;6229201;28;20597;-71
2021/12/10 11:18:45;;;;;;;11.95;8.40;;;20.40;46.10;;;;;;6245737;28;20026;-70
2021/12/10 11:21:52;;;;;;;10.75;7.13;;;20.40;46.10;;;;;;6245725;28;20851;-70
2021/12/10 11:24:57;;;;;;;18.55;9.48;;;20.40;46.30;;;;;;6228902;28;20060;-71
2021/12/10 11:28:09;;;;;;;38.63;21.98;;;20.30;45.60;;;;;;6248600;28;20071;-73
2021/12/10 11:31:09;;;;;;;39.13;21.92;;;20.30;43.70;;;;;;6247335;28;20100;-70
2021/12/10 11:34:10;;;;;;;37.80;23.33;;;20.30;42.90;;;;;;6248283;28;20540;-71
2021/12/10 11:37:12;;;;;;;33.75;21.10;;;20.30;43.00;;;;;;6248201;28;20021;-71
2021/12/10 11:40:32;;;;;;;35.05;22.23;;;20.30;43.40;;;;;;6248193;28;20407;-70
2021/12/10 11:47:28;;;;;;;41.75;24.88;;;20.30;44.00;;;;;;6247529;28;20095;-73
2021/12/10 11:50:28;;;;;;;38.15;23.23;;;20.20;43.30;;;;;;6246354;28;20021;-73
2021/12/10 11:53:39;;;;;;;50.72;27.98;;;20.20;41.50;;;;;;6245363;28;20129;-72
2021/12/10 11:56:47;;;;;;;46.22;26.55;;;20.20;40.70;;;;;;6246216;28;20021;-73
2021/12/10 12:00:19;;;;;;;40.55;23.80;;;20.20;41.10;;;;;;6220717;28;20041;-73
2021/12/10 12:03:29;;;;;;;34.85;22.20;;;20.30;41.70;;;;;;6242728;28;20037;-73
2021/12/10 12:06:30;;;;;;;34.35;20.92;;;20.30;41.90;;;;;;6244738;28;20479;-73
2021/12/10 12:09:38;;;;;;;31.10;19.63;;;20.30;42.30;;;;;;6264669;28;20029;-73
2021/12/10 12:12:43;;;;;;;31.75;20.23;;;20.30;42.40;;;;;;6259734;28;20064;-73
2021/12/10 12:15:50;;;;;;;33.92;20.45;;;20.30;42.60;;;;;;6247930;28;20401;-74
2021/12/10 12:18:54;;;;;;;27.50;18.00;;;20.30;42.90;;;;;;6244005;28;20048;-73
2021/12/10 12:25:26;;;;;;;28.00;17.95;;;20.30;43.20;;;;;;6245673;28;20018;-73
2021/12/10 12:28:28;;;;;;;29.13;18.17;;;20.30;43.40;;;;;;6245566;28;20029;-71
2021/12/10 12:31:31;;;;;;;25.52;16.75;;;20.40;43.60;;;;;;6244294;28;20120;-73
2021/12/10 12:34:32;;;;;;;26.77;17.63;;;20.40;43.70;;;;;;6251873;28;20079;-72
2021/12/10 12:37:33;;;;;;;25.67;16.80;;;20.40;43.80;;;;;;6260335;28;20033;-73
2021/12/10 12:40:34;;;;;;;25.30;16.83;;;20.50;43.90;;;;;;6245429;28;20061;-73
2021/12/10 12:43:37;;;;;;;26.00;16.77;;;20.50;44.00;;;;;;6243799;28;20025;-72
2021/12/10 12:47:02;;;;;;;28.30;16.55;;;20.50;44.10;;;;;;6244021;28;20874;-73
2021/12/10 12:50:16;;;;;;;25.67;15.68;;;20.40;44.00;;;;;;6243604;28;20701;-73
2021/12/10 12:53:21;;;;;;;24.38;15.75;;;20.40;44.10;;;;;;6242414;28;20227;-73
2021/12/10 12:56:25;;;;;;;23.35;15.02;;;20.40;44.10;;;;;;6243560;28;20418;-72
2021/12/10 12:59:26;;;;;;;26.15;14.52;;;20.40;44.20;;;;;;6243281;28;20033;-73
2021/12/10 13:02:28;;;;;;;24.65;15.73;;;20.40;44.20;;;;;;6242904;28;20022;-73
2021/12/10 13:05:44;;;;;;;23.38;15.73;;;20.40;44.20;;;;;;6244599;28;20398;-72
2021/12/10 13:09:06;;;;;;;26.00;16.02;;;20.40;44.30;;;;;;6254608;28;20030;-72
2021/12/10 13:12:25;;;;;;;23.67;15.98;;;20.40;44.30;;;;;;6242708;28;20124;-72
2021/12/10 13:15:28;;;;;;;23.35;16.15;;;20.40;44.40;;;;;;6244578;28;20041;-72
2021/12/10 13:18:29;;;;;;;22.60;15.75;;;20.40;44.50;;;;;;6256743;28;20086;-72
2021/12/10 13:21:31;;;;;;;26.05;15.35;;;20.40;44.60;;;;;;6267641;28;20482;-73
2021/12/10 13:24:32;;;;;;;23.08;15.15;;;20.40;44.60;;;;;;6245054;28;20033;-73
2021/12/10 13:27:36;;;;;;;22.98;14.63;;;20.40;44.60;;;;;;6249381;28;20033;-73
2021/12/10 13:30:56;;;;;;;24.48;15.20;;;20.40;44.70;;;;;;6243664;28;20025;-72
2021/12/10 13:33:57;;;;;;;22.98;14.93;;;20.40;44.70;;;;;;6258021;28;20029;-73
2021/12/10 13:37:00;;;;;;;20.10;14.40;;;20.40;44.70;;;;;;6248040;28;20033;-73
2021/12/10 13:40:03;;;;;;;21.92;13.65;;;20.40;44.80;;;;;;6267524;28;20124;-72
2021/12/10 13:43:06;;;;;;;21.23;14.02;;;20.40;44.80;;;;;;6263170;28;20490;-72
2021/12/10 13:46:12;;;;;;;21.23;14.43;;;20.40;44.80;;;;;;6267839;28;20120;-72
2021/12/10 13:49:14;;;;;;;22.08;14.25;;;20.40;44.80;;;;;;6253287;28;20031;-72
2021/12/10 13:52:40;;;;;;;23.02;14.80;;;20.40;44.90;;;;;;6260534;28;20048;-72
2021/12/10 13:55:42;;;;;;;20.52;13.23;;;20.40;44.90;;;;;;6243234;28;20503;-72
2021/12/10 13:58:51;;;;;;;21.08;13.80;;;20.40;45.00;;;;;;6241865;28;20026;-73
2021/12/10 14:01:56;;;;;;;20.10;14.07;;;20.40;45.00;;;;;;6248424;28;20092;-73
2021/12/10 14:04:59;;;;;;;21.77;14.27;;;20.40;45.10;;;;;;6265143;28;20036;-73
2021/12/10 14:08:07;;;;;;;20.35;13.55;;;20.40;45.10;;;;;;6254537;28;20036;-73
2021/12/10 14:11:29;;;;;;;19.52;13.43;;;20.40;45.10;;;;;;6262006;28;20025;-73
2021/12/10 14:14:35;;;;;;;20.60;13.07;;;20.40;45.20;;;;;;6254503;28;20653;-72
2021/12/10 14:17:53;;;;;;;22.60;14.43;;;20.40;45.20;;;;;;6242015;28;20116;-72
2021/12/10 14:21:00;;;;;;;19.73;13.48;;;20.40;45.20;;;;;;6241814;28;20026;-73
2021/12/10 14:24:00;;;;;;;19.42;13.27;;;20.40;45.30;;;;;;6242081;28;20029;-73
2021/12/10 14:27:20;;;;;;;19.42;13.35;;;20.40;45.30;;;;;;6260236;28;20659;-73
2021/12/10 14:30:35;;;;;;;21.60;14.88;;;20.40;45.30;;;;;;6242587;28;20018;-72
2021/12/10 14:33:38;;;;;;;19.83;13.73;;;20.40;45.30;;;;;;6260129;28;20029;-73
2021/12/10 14:36:38;;;;;;;20.75;13.57;;;20.40;45.30;;;;;;6243155;28;20102;-72
2021/12/10 14:40:10;;;;;;;21.00;13.73;;;20.40;45.40;;;;;;6246290;28;20033;-73
2021/12/10 14:43:17;;;;;;;22.00;13.73;;;20.40;45.40;;;;;;6245926;28;20075;-73
2021/12/10 14:46:30;;;;;;;19.80;13.50;;;20.40;45.40;;;;;;6246036;28;20033;-73
2021/12/10 14:49:40;;;;;;;19.65;13.80;;;20.40;45.40;;;;;;6251832;28;20072;-72
2021/12/10 14:52:44;;;;;;;20.33;13.45;;;20.40;45.40;;;;;;6249028;28;20116;-72
2021/12/10 14:55:47;;;;;;;19.38;13.10;;;20.40;45.40;;;;;;6250825;28;20029;-72
2021/12/10 14:59:15;;;;;;;19.15;13.25;;;20.40;45.50;;;;;;6246006;28;20022;-72
2021/12/10 15:02:28;;;;;;;22.48;12.73;;;20.40;45.50;;;;;;6247174;28;20546;-72
2021/12/10 15:05:51;;;;;;;20.05;13.10;;;20.40;45.50;;;;;;6248997;28;20033;-72
2021/12/10 15:09:03;;;;;;;21.80;13.38;;;20.40;45.50;;;;;;6245729;28;20057;-72
2021/12/10 15:12:07;;;;;;;18.55;12.40;;;20.40;45.60;;;;;;6246726;28;20402;-72
2021/12/10 15:15:09;;;;;;;20.60;12.98;;;20.40;45.60;;;;;;6251534;28;20037;-72
2021/12/10 15:18:50;;;;;;;20.65;13.35;;;20.40;45.70;;;;;;6260057;28;20111;-69
2021/12/10 15:21:55;;;;;;;21.48;13.57;;;20.40;45.70;;;;;;6250851;28;20033;-70
2021/12/10 15:24:56;;;;;;;22.00;14.02;;;20.40;45.90;;;;;;6249721;28;20394;-70
2021/12/10 15:28:04;;;;;;;26.05;15.57;;;20.40;45.50;;;;;;6245467;28;20036;-69
2021/12/10 15:31:06;;;;;;;31.60;18.65;;;20.30;43.80;;;;;;6245931;28;20476;-69
2021/12/10 15:34:07;;;;;;;28.20;16.80;;;20.30;42.90;;;;;;6261466;28;20399;-69
2021/12/10 15:37:10;;;;;;;35.60;19.77;;;20.30;44.10;;;;;;6266538;28;20033;-71
2021/12/10 15:40:17;;;;;;;34.88;20.92;;;20.30;42.20;;;;;;6260486;28;20026;-71
2021/12/10 15:43:44;;;;;;;33.17;20.15;;;20.30;40.90;;;;;;6256698;28;20052;-72
2021/12/10 15:46:55;;;;;;;28.27;17.67;;;20.30;42.30;;;;;;6245892;28;20113;-70
2021/12/10 15:49:56;;;;;;;30.23;17.80;;;20.30;41.50;;;;;;6245954;28;20021;-69
2021/12/10 15:53:06;;;;;;;30.05;17.80;;;20.30;42.60;;;;;;6244113;28;20075;-70
2021/12/10 15:56:19;;;;;;;34.10;19.60;;;20.30;42.50;;;;;;6245490;28;20044;-69
2021/12/10 15:59:25;;;;;;;34.03;21.05;;;20.20;42.80;;;;;;6268583;28;20358;-70
2021/12/10 16:02:27;;;;;;;34.65;20.48;;;20.20;42.10;;;;;;6261948;28;20033;-69